createdAt,value
2023-04-20T00:02:20.562Z,10.20
2023-04-20T00:04:32.104Z,10.20
2023-04-20T00:06:37.316Z,10.20
2023-04-20T00:08:46.317Z,10.20
2023-04-20T00:10:50.348Z,10.30
2023-04-20T00:12:54.260Z,10.30
2023-04-20T00:14:59.078Z,10.30
2023-04-20T00:17:02.863Z,10.30
2023-04-20T00:19:07.393Z,10.30
2023-04-20T00:21:10.923Z,10.30
2023-04-20T00:23:14.746Z,10.40
2023-04-20T00:25:20.079Z,10.40
2023-04-20T00:27:23.703Z,10.30
2023-04-20T00:29:42.669Z,10.30
2023-04-20T00:31:46.230Z,10.30
2023-04-20T00:33:50.055Z,10.30
2023-04-20T00:35:54.256Z,10.20
2023-04-20T00:37:57.953Z,10.30
2023-04-20T00:40:01.692Z,10.20
2023-04-20T00:42:10.253Z,10.20
2023-04-20T00:44:18.787Z,10.10
2023-04-20T00:46:23.084Z,10.10
2023-04-20T00:48:27.159Z,10.00
2023-04-20T00:50:30.955Z,9.90
2023-04-20T00:52:34.746Z,9.80
2023-04-20T00:54:38.454Z,9.80
2023-04-20T00:56:45.781Z,9.70
2023-04-20T00:58:50.805Z,9.70
2023-04-20T01:00:54.382Z,9.70
2023-04-20T01:02:57.867Z,9.60
2023-04-20T01:05:01.809Z,9.60
2023-04-20T01:07:05.892Z,9.70
2023-04-20T01:09:10.300Z,9.60
2023-04-20T01:11:53.044Z,9.60
2023-04-20T01:13:57.937Z,9.70
2023-04-20T01:16:01.404Z,9.80
2023-04-20T01:18:06.171Z,9.70
2023-04-20T01:20:11.717Z,9.80
2023-04-20T01:22:18.869Z,9.80
2023-04-20T01:24:22.283Z,9.80
2023-04-20T01:26:27.121Z,9.80
2023-04-20T01:29:31.736Z,9.80
2023-04-20T01:31:35.362Z,9.80
2023-04-20T01:33:38.831Z,9.80
2023-04-20T01:35:44.251Z,9.80
2023-04-20T01:37:49.230Z,9.80
2023-04-20T01:39:52.717Z,9.80
2023-04-20T01:41:56.680Z,9.80
2023-04-20T01:47:26.114Z,9.90
2023-04-20T01:49:29.683Z,9.90
2023-04-20T01:51:34.011Z,9.90
2023-04-20T01:53:39.375Z,9.80
2023-04-20T01:55:42.917Z,9.80
2023-04-20T01:57:46.557Z,9.80
2023-04-20T01:59:50.503Z,9.80
2023-04-20T02:01:54.391Z,9.80
2023-04-20T02:03:58.114Z,9.80
2023-04-20T02:06:01.670Z,9.90
2023-04-20T02:08:06.017Z,9.90
2023-04-20T02:10:12.126Z,9.90
2023-04-20T02:12:15.974Z,9.80
2023-04-20T02:14:56.048Z,9.70
2023-04-20T02:17:00.672Z,9.60
2023-04-20T02:19:04.184Z,9.50
2023-04-20T02:21:08.314Z,9.40
2023-04-20T02:23:11.834Z,9.40
2023-04-20T02:25:17.818Z,9.40
2023-04-20T02:27:21.403Z,9.30
2023-04-20T02:29:27.450Z,9.30
2023-04-20T02:31:31.349Z,9.30
2023-04-20T02:33:35.112Z,9.40
2023-04-20T02:35:39.226Z,9.30
2023-04-20T02:37:44.355Z,9.40
2023-04-20T02:39:47.927Z,9.40
2023-04-20T02:41:52.923Z,9.30
2023-04-20T02:44:52.970Z,9.20
2023-04-20T02:46:56.723Z,9.20
2023-04-20T02:49:00.868Z,9.20
2023-04-20T02:51:59.677Z,9.40
2023-04-20T02:54:03.707Z,9.20
2023-04-20T02:56:07.328Z,9.20
2023-04-20T02:58:12.396Z,9.20
2023-04-20T03:00:16.922Z,9.20
2023-04-20T03:02:20.547Z,9.20
2023-04-20T03:04:24.175Z,9.20
2023-04-20T03:06:28.080Z,9.20
2023-04-20T03:08:31.645Z,9.30
2023-04-20T03:14:02.724Z,9.20
2023-04-20T03:16:07.335Z,9.40
2023-04-20T03:18:11.453Z,9.40
2023-04-20T03:21:03.048Z,9.50
2023-04-20T03:23:06.504Z,9.30
2023-04-20T03:25:10.684Z,9.30
2023-04-20T03:27:14.541Z,9.30
2023-04-20T03:29:34.354Z,9.40
2023-04-20T03:31:38.120Z,9.40
2023-04-20T03:33:41.686Z,9.30
2023-04-20T03:35:51.392Z,9.40
2023-04-20T03:37:54.886Z,9.40
2023-04-20T03:39:58.693Z,9.40
2023-04-20T03:42:02.072Z,9.30
2023-04-20T03:44:06.822Z,9.30
2023-04-20T03:46:11.895Z,9.20
2023-04-20T03:48:15.491Z,9.30
2023-04-20T03:50:19.095Z,9.10
2023-04-20T03:52:22.650Z,9.00
2023-04-20T03:54:26.403Z,8.90
2023-04-20T03:59:56.020Z,8.80
2023-04-20T04:02:01.940Z,8.80
2023-04-20T04:04:05.776Z,8.80
2023-04-20T04:06:10.492Z,8.60
2023-04-20T04:08:14.039Z,8.60
2023-04-20T04:10:19.291Z,8.50
2023-04-20T04:12:23.206Z,8.40
2023-04-20T04:14:41.165Z,8.40
2023-04-20T04:16:44.978Z,8.30
2023-04-20T04:18:50.131Z,8.30
2023-04-20T04:20:53.716Z,8.20
2023-04-20T04:22:57.859Z,8.30
2023-04-20T04:25:01.566Z,8.20
2023-04-20T04:27:06.331Z,8.30
2023-04-20T04:29:16.460Z,8.30
2023-04-20T04:31:21.914Z,8.30
2023-04-20T04:33:25.550Z,8.30
2023-04-20T04:35:31.569Z,8.20
2023-04-20T04:37:35.182Z,8.10
2023-04-20T04:39:38.786Z,8.00
2023-04-20T04:41:42.462Z,8.00
2023-04-20T04:43:46.015Z,7.90
2023-04-20T04:45:50.107Z,7.90
2023-04-20T04:51:21.412Z,7.80
2023-04-20T04:53:25.146Z,7.90
2023-04-20T04:55:28.790Z,7.90
2023-04-20T04:57:33.516Z,7.90
2023-04-20T04:59:37.623Z,7.90
2023-04-20T05:01:42.147Z,7.90
2023-04-20T05:03:45.875Z,8.00
2023-04-20T05:09:22.594Z,8.00
2023-04-20T05:11:25.975Z,8.10
2023-04-20T05:13:29.500Z,8.00
2023-04-20T05:15:33.242Z,7.90
2023-04-20T05:17:37.199Z,8.00
2023-04-20T05:19:40.763Z,8.00
2023-04-20T05:21:45.758Z,8.00
2023-04-20T05:23:54.726Z,8.10
2023-04-20T05:25:59.979Z,8.10
2023-04-20T05:28:05.320Z,8.10
2023-04-20T05:30:20.572Z,8.20
2023-04-20T05:32:26.097Z,8.20
2023-04-20T05:34:31.584Z,8.20
2023-04-20T05:36:35.394Z,8.20
2023-04-20T05:38:39.459Z,8.10
2023-04-20T05:40:42.979Z,8.10
2023-04-20T05:42:48.379Z,8.10
2023-04-20T05:44:52.187Z,8.20
2023-04-20T05:46:59.142Z,8.30
2023-04-20T05:49:02.843Z,8.30
2023-04-20T05:51:09.343Z,8.40
2023-04-20T05:53:13.004Z,8.50
2023-04-20T05:55:18.914Z,8.60
2023-04-20T05:57:25.208Z,8.60
2023-04-20T05:59:32.028Z,8.60
2023-04-20T06:01:39.102Z,8.70
2023-04-20T06:03:43.153Z,8.70
2023-04-20T06:05:47.322Z,8.80
2023-04-20T06:07:51.054Z,8.90
2023-04-20T06:09:55.024Z,8.80
2023-04-20T06:12:00.403Z,8.90
2023-04-20T06:14:13.712Z,9.00
2023-04-20T06:16:19.165Z,9.10
2023-04-20T06:18:23.027Z,9.20
2023-04-20T06:20:28.111Z,9.30
2023-04-20T06:22:35.569Z,9.40
2023-04-20T06:24:48.237Z,9.40
2023-04-20T06:26:53.178Z,9.50
2023-04-20T06:28:57.383Z,9.50
2023-04-20T06:31:01.138Z,9.40
2023-04-20T06:33:18.313Z,9.50
2023-04-20T06:35:22.896Z,9.50
2023-04-20T06:37:30.024Z,9.60
2023-04-20T06:39:33.689Z,9.70
2023-04-20T06:41:37.972Z,9.70
2023-04-20T06:43:42.459Z,9.70
2023-04-20T06:45:45.945Z,9.70
2023-04-20T06:47:50.148Z,9.50
2023-04-20T06:49:55.414Z,9.50
2023-04-20T06:52:15.177Z,9.40
2023-04-20T06:54:26.525Z,9.50
2023-04-20T06:56:31.103Z,9.60
2023-04-20T06:59:22.037Z,9.60
2023-04-20T07:01:25.743Z,9.40
2023-04-20T07:03:29.799Z,9.40
2023-04-20T07:05:34.991Z,9.50
2023-04-20T07:07:39.857Z,9.40
2023-04-20T07:09:43.575Z,9.50
2023-04-20T07:11:47.320Z,9.50
2023-04-20T07:13:50.951Z,9.40
2023-04-20T07:15:54.652Z,9.20
2023-04-20T07:17:58.761Z,9.20
2023-04-20T07:20:07.631Z,9.20
2023-04-20T07:22:12.964Z,9.10
2023-04-20T07:24:20.917Z,9.10
2023-04-20T07:26:24.621Z,8.90
2023-04-20T07:28:28.399Z,8.90
2023-04-20T07:30:32.729Z,8.90
2023-04-20T07:32:36.621Z,8.90
2023-04-20T07:34:40.368Z,9.00
2023-04-20T07:36:44.028Z,9.10
2023-04-20T07:38:49.150Z,9.20
2023-04-20T07:40:53.013Z,9.30
2023-04-20T07:42:56.921Z,9.50
2023-04-20T07:45:12.780Z,9.60
2023-04-20T07:47:16.613Z,9.70
2023-04-20T07:49:24.973Z,9.70
2023-04-20T07:51:30.468Z,9.60
2023-04-20T07:53:35.666Z,9.60
2023-04-20T07:55:40.765Z,9.70
2023-04-20T07:57:44.395Z,9.90
2023-04-20T07:59:48.255Z,9.80
2023-04-20T08:01:53.052Z,10.00
2023-04-20T08:03:58.481Z,10.20
2023-04-20T08:06:02.404Z,10.50
2023-04-20T08:08:06.475Z,10.60
2023-04-20T08:10:11.173Z,10.80
2023-04-20T08:12:16.161Z,10.80
2023-04-20T08:14:21.284Z,10.80
2023-04-20T08:16:26.569Z,10.70
2023-04-20T08:18:31.619Z,10.80
2023-04-20T08:20:35.546Z,10.90
2023-04-20T08:22:40.065Z,11.10
2023-04-20T08:24:44.045Z,11.30
2023-04-20T08:26:47.822Z,11.40
2023-04-20T08:28:53.359Z,11.40
2023-04-20T08:30:57.374Z,11.60
2023-04-20T08:33:34.034Z,11.70
2023-04-20T08:35:38.303Z,12.00
2023-04-20T08:37:43.132Z,12.10
2023-04-20T08:39:47.206Z,12.10
2023-04-20T08:41:54.040Z,11.90
2023-04-20T08:43:59.486Z,11.80
2023-04-20T08:46:04.249Z,11.90
2023-04-20T08:48:09.589Z,12.00
2023-04-20T08:50:14.782Z,12.00
2023-04-20T08:52:18.590Z,12.30
2023-04-20T08:54:24.760Z,12.60
2023-04-20T08:56:36.358Z,12.80
2023-04-20T08:58:42.480Z,12.90
2023-04-20T09:00:51.452Z,13.00
2023-04-20T09:02:56.500Z,12.90
2023-04-20T09:05:40.176Z,12.90
2023-04-20T09:07:52.181Z,12.90
2023-04-20T09:09:56.940Z,13.00
2023-04-20T09:12:04.592Z,13.30
2023-04-20T09:14:10.210Z,13.40
2023-04-20T09:16:15.945Z,13.40
2023-04-20T09:18:19.782Z,13.60
2023-04-20T09:20:30.865Z,13.90
2023-04-20T09:22:36.087Z,14.30
2023-04-20T09:24:40.924Z,14.60
2023-04-20T09:26:44.601Z,14.80
2023-04-20T09:28:48.348Z,14.80
2023-04-20T09:30:52.175Z,14.70
2023-04-20T09:33:08.326Z,14.70
2023-04-20T09:35:11.991Z,14.80
2023-04-20T09:37:17.054Z,14.90
2023-04-20T09:39:22.184Z,15.00
2023-04-20T09:41:25.824Z,15.10
2023-04-20T09:43:29.768Z,15.00
2023-04-20T09:45:33.569Z,14.90
2023-04-20T09:47:41.888Z,15.00
2023-04-20T09:49:48.177Z,15.00
2023-04-20T09:51:52.130Z,15.00
2023-04-20T09:53:56.676Z,15.00
2023-04-20T09:56:00.625Z,15.20
2023-04-20T09:58:24.002Z,15.30
2023-04-20T10:00:27.823Z,15.40
2023-04-20T10:02:31.903Z,15.70
2023-04-20T10:04:35.896Z,15.90
2023-04-20T10:06:41.592Z,16.20
2023-04-20T10:08:47.956Z,16.50
2023-04-20T10:10:52.593Z,16.80
2023-04-20T10:12:57.199Z,17.00
2023-04-20T10:15:19.046Z,17.20
2023-04-20T10:17:31.808Z,17.30
2023-04-20T10:19:40.666Z,17.10
2023-04-20T10:21:49.132Z,16.70
2023-04-20T10:23:53.220Z,16.40
2023-04-20T10:25:58.229Z,16.10
2023-04-20T10:28:05.100Z,16.10
2023-04-20T10:30:12.260Z,15.90
2023-04-20T10:32:30.526Z,15.70
2023-04-20T10:34:34.865Z,15.40
2023-04-20T10:36:39.361Z,15.10
2023-04-20T10:38:44.814Z,14.80
2023-04-20T10:40:48.670Z,14.90
2023-04-20T10:42:52.191Z,15.00
2023-04-20T10:44:56.257Z,15.10
2023-04-20T10:47:00.123Z,15.10
2023-04-20T10:49:07.057Z,15.10
2023-04-20T10:51:12.159Z,15.10
2023-04-20T10:53:22.857Z,15.40
2023-04-20T10:55:28.211Z,15.60
2023-04-20T10:57:31.907Z,15.80
2023-04-20T10:59:37.501Z,15.80
2023-04-20T11:01:41.370Z,15.80
2023-04-20T11:03:45.263Z,16.00
2023-04-20T11:05:52.281Z,16.20
2023-04-20T11:07:56.802Z,16.20
2023-04-20T11:10:00.424Z,16.20
2023-04-20T11:12:06.947Z,16.20
2023-04-20T11:14:11.375Z,16.00
2023-04-20T11:16:16.331Z,16.10
2023-04-20T11:18:21.743Z,16.10
2023-04-20T11:20:25.592Z,16.40
2023-04-20T11:22:29.258Z,16.60
2023-04-20T11:24:34.146Z,16.80
2023-04-20T11:26:41.180Z,16.70
2023-04-20T11:28:56.694Z,16.90
2023-04-20T11:31:00.700Z,16.60
2023-04-20T11:33:04.996Z,16.30
2023-04-20T11:35:10.956Z,15.90
2023-04-20T11:37:15.090Z,15.60
2023-04-20T11:39:25.829Z,15.20
2023-04-20T11:41:29.357Z,14.90
2023-04-20T11:43:33.038Z,14.60
2023-04-20T11:45:38.466Z,14.60
2023-04-20T11:47:42.227Z,14.80
2023-04-20T11:49:45.761Z,15.20
2023-04-20T11:51:49.265Z,15.40
2023-04-20T11:53:54.762Z,15.40
2023-04-20T11:56:05.969Z,15.30
2023-04-20T11:58:09.727Z,14.90
2023-04-20T12:00:14.544Z,14.70
2023-04-20T12:02:19.886Z,14.90
2023-04-20T12:04:25.135Z,14.90
2023-04-20T12:06:29.218Z,14.90
2023-04-20T12:08:33.171Z,14.80
2023-04-20T12:10:37.812Z,14.70
2023-04-20T12:12:43.813Z,14.50
2023-04-20T12:14:47.607Z,14.20
2023-04-20T12:16:51.331Z,14.10
2023-04-20T12:18:56.802Z,14.10
2023-04-20T12:21:00.890Z,14.10
2023-04-20T12:23:05.085Z,14.10
2023-04-20T12:25:09.918Z,14.20
2023-04-20T12:27:13.655Z,14.30
2023-04-20T12:29:17.971Z,14.50
2023-04-20T12:31:23.063Z,14.90
2023-04-20T12:33:29.974Z,15.10
2023-04-20T12:35:34.949Z,15.30
2023-04-20T12:37:38.754Z,15.30
2023-04-20T12:39:42.871Z,15.20
2023-04-20T12:41:46.788Z,15.20
2023-04-20T12:43:50.948Z,15.20
2023-04-20T12:45:54.646Z,15.20
2023-04-20T12:48:04.391Z,15.30
2023-04-20T12:50:09.340Z,15.50
2023-04-20T12:52:15.148Z,15.80
2023-04-20T12:54:20.196Z,16.10
2023-04-20T12:56:24.327Z,16.20
2023-04-20T12:58:27.918Z,16.10
2023-04-20T13:00:31.661Z,16.10
2023-04-20T13:02:35.379Z,16.20
2023-04-20T13:04:39.248Z,16.30
2023-04-20T13:06:43.865Z,16.30
2023-04-20T13:08:48.979Z,16.50
2023-04-20T13:10:52.838Z,16.80
2023-04-20T13:12:58.069Z,17.00
2023-04-20T13:15:02.044Z,17.00
2023-04-20T13:17:07.113Z,16.90
2023-04-20T13:19:10.815Z,16.80
2023-04-20T13:21:14.282Z,16.80
2023-04-20T13:23:18.242Z,16.80
2023-04-20T13:25:23.483Z,16.70
2023-04-20T13:27:30.032Z,16.70
2023-04-20T13:29:33.632Z,16.40
2023-04-20T13:31:37.856Z,16.20
2023-04-20T13:33:41.617Z,15.80
2023-04-20T13:35:45.268Z,15.60
2023-04-20T13:37:49.395Z,15.40
2023-04-20T13:39:53.746Z,15.30
2023-04-20T13:41:58.889Z,15.20
2023-04-20T13:44:02.892Z,15.00
2023-04-20T13:46:06.650Z,15.00
2023-04-20T13:48:11.080Z,14.90
2023-04-20T13:50:25.184Z,14.60
2023-04-20T13:52:28.956Z,14.40
2023-04-20T13:54:32.719Z,14.10
2023-04-20T13:56:36.701Z,13.80
2023-04-20T13:59:00.038Z,13.80
2023-04-20T14:01:10.026Z,13.90
2023-04-20T14:03:15.642Z,13.90
2023-04-20T14:05:19.650Z,13.80
2023-04-20T14:07:23.256Z,13.90
2023-04-20T14:09:28.767Z,13.90
2023-04-20T14:11:32.915Z,14.00
2023-04-20T14:13:36.979Z,14.10
2023-04-20T14:15:43.123Z,14.20
2023-04-20T14:17:47.141Z,13.90
2023-04-20T14:19:51.126Z,13.80
2023-04-20T14:21:54.799Z,13.70
2023-04-20T14:23:59.768Z,13.50
2023-04-20T14:26:04.262Z,13.50
2023-04-20T14:28:07.895Z,13.60
2023-04-20T14:30:12.785Z,13.50
2023-04-20T14:32:18.935Z,13.70
2023-04-20T14:34:24.298Z,13.70
2023-04-20T14:36:28.367Z,13.90
2023-04-20T14:38:32.268Z,14.00
2023-04-20T14:40:35.825Z,14.30
2023-04-20T14:42:39.579Z,14.30
2023-04-20T14:44:43.619Z,14.30
2023-04-20T14:46:47.362Z,14.40
2023-04-20T14:48:52.773Z,14.50
2023-04-20T14:50:57.349Z,14.60
2023-04-20T14:53:01.003Z,14.80
2023-04-20T14:55:05.104Z,15.00
2023-04-20T14:57:08.506Z,15.20
2023-04-20T14:59:12.618Z,15.30
2023-04-20T15:01:22.139Z,15.30
2023-04-20T15:03:26.262Z,15.30
2023-04-20T15:05:31.956Z,15.40
2023-04-20T15:07:36.094Z,15.30
2023-04-20T15:09:39.590Z,15.10
2023-04-20T15:11:43.453Z,14.90
2023-04-20T15:13:47.237Z,14.50
2023-04-20T15:15:52.575Z,14.50
2023-04-20T15:17:57.982Z,14.30
2023-04-20T15:20:01.894Z,14.20
2023-04-20T15:22:07.234Z,14.00
2023-04-20T15:24:11.112Z,13.90
2023-04-20T15:26:14.944Z,14.00
2023-04-20T15:28:18.782Z,13.80
2023-04-20T15:30:22.519Z,13.60
2023-04-20T15:32:26.734Z,13.40
2023-04-20T15:34:30.291Z,13.50
2023-04-20T15:36:33.941Z,13.40
2023-04-20T15:38:39.082Z,13.30
2023-04-20T15:40:42.870Z,13.20
2023-04-20T15:42:59.744Z,13.20
2023-04-20T15:45:04.012Z,13.30
2023-04-20T15:47:07.945Z,13.30
2023-04-20T15:49:11.482Z,13.30
2023-04-20T15:51:15.243Z,13.10
2023-04-20T15:53:19.107Z,13.20
2023-04-20T15:55:24.657Z,13.20
2023-04-20T15:57:28.716Z,13.10
2023-04-20T15:59:32.859Z,13.10
2023-04-20T16:01:36.524Z,13.20
2023-04-20T16:03:40.927Z,13.20
2023-04-20T16:06:15.016Z,13.20
2023-04-20T16:08:19.104Z,13.20
2023-04-20T16:10:24.698Z,13.20
2023-04-20T16:12:28.250Z,13.20
2023-04-20T16:14:31.779Z,13.20
2023-04-20T16:16:35.404Z,13.20
2023-04-20T16:18:39.043Z,13.30
2023-04-20T16:20:48.211Z,13.30
2023-04-20T16:22:51.869Z,13.20
2023-04-20T16:24:55.354Z,13.20
2023-04-20T16:27:01.792Z,13.20
2023-04-20T16:29:06.067Z,13.20
2023-04-20T16:31:09.805Z,13.10
2023-04-20T16:33:14.368Z,13.00
2023-04-20T16:35:18.339Z,13.00
2023-04-20T16:37:22.034Z,12.80
2023-04-20T16:39:25.621Z,12.90
2023-04-20T16:41:29.470Z,12.90
2023-04-20T16:43:34.729Z,12.80
2023-04-20T16:45:39.272Z,12.60
2023-04-20T16:47:43.122Z,12.60
2023-04-20T16:49:46.672Z,12.40
2023-04-20T16:51:50.029Z,12.30
2023-04-20T16:53:53.745Z,12.10
2023-04-20T16:55:57.577Z,12.00
2023-04-20T16:58:01.212Z,11.90
2023-04-20T17:00:08.798Z,12.00
2023-04-20T17:02:12.534Z,11.90
2023-04-20T17:04:17.948Z,12.00
2023-04-20T17:06:21.914Z,12.00
2023-04-20T17:08:27.660Z,11.90
2023-04-20T17:10:31.350Z,11.80
2023-04-20T17:12:42.714Z,11.70
2023-04-20T17:14:46.954Z,11.70
2023-04-20T17:16:54.450Z,11.70
2023-04-20T17:18:58.156Z,11.60
2023-04-20T17:21:08.558Z,11.60
2023-04-20T17:23:12.442Z,11.50
2023-04-20T17:25:16.307Z,11.50
2023-04-20T17:27:20.560Z,11.30
2023-04-20T17:29:24.260Z,11.20
2023-04-20T17:31:28.445Z,11.20
2023-04-20T17:33:33.736Z,11.20
2023-04-20T17:35:38.133Z,11.20
2023-04-20T17:37:42.447Z,11.20
2023-04-20T17:39:46.295Z,11.30
2023-04-20T17:41:50.193Z,11.40
2023-04-20T17:43:54.036Z,11.50
2023-04-20T17:45:58.916Z,11.50
2023-04-20T17:48:02.681Z,11.50
2023-04-20T17:50:09.572Z,11.50
2023-04-20T17:52:18.222Z,11.40
2023-04-20T17:54:21.990Z,11.30
2023-04-20T17:56:25.811Z,11.40
2023-04-20T17:58:30.016Z,11.30
2023-04-20T18:00:33.440Z,11.20
2023-04-20T18:02:37.125Z,11.20
2023-04-20T18:04:41.136Z,11.20
2023-04-20T18:06:46.420Z,11.10
2023-04-20T18:08:50.169Z,11.20
2023-04-20T18:10:54.167Z,11.30
2023-04-20T18:13:20.758Z,11.20
2023-04-20T18:15:24.560Z,11.20
2023-04-20T18:17:28.554Z,11.30
2023-04-20T18:19:32.959Z,11.40
2023-04-20T18:21:36.964Z,11.30
2023-04-20T18:23:42.153Z,11.30
2023-04-20T18:25:45.843Z,11.30
2023-04-20T18:28:04.839Z,11.30
2023-04-20T18:30:10.112Z,11.30
2023-04-20T18:32:16.505Z,11.30
2023-04-20T18:34:20.632Z,11.30
2023-04-20T18:36:24.363Z,11.40
2023-04-20T18:38:28.390Z,11.30
2023-04-20T18:40:33.544Z,11.20
2023-04-20T18:42:37.074Z,11.10
2023-04-20T18:44:40.708Z,11.00
2023-04-20T18:46:44.463Z,10.80
2023-04-20T18:48:48.757Z,10.70
2023-04-20T18:50:52.842Z,10.80
2023-04-20T18:57:54.304Z,10.70
2023-04-20T19:00:24.952Z,10.60
2023-04-20T19:02:29.516Z,10.40
2023-04-20T19:07:03.764Z,10.30
2023-04-20T19:11:25.195Z,10.20
2023-04-20T19:13:43.657Z,10.10
2023-04-20T19:15:47.601Z,10.00
2023-04-20T19:17:51.383Z,10.00
2023-04-20T19:22:23.376Z,10.00
2023-04-20T19:24:27.374Z,10.00
2023-04-20T19:26:30.828Z,10.00
2023-04-20T19:28:35.952Z,9.90
2023-04-20T19:30:39.469Z,9.90
2023-04-20T19:32:43.304Z,9.90
2023-04-20T19:34:46.966Z,9.90
2023-04-20T19:37:37.220Z,9.90
2023-04-20T19:39:42.918Z,10.10
2023-04-20T19:41:46.410Z,10.10
2023-04-20T19:43:51.322Z,10.10
2023-04-20T19:46:01.312Z,10.20
2023-04-20T19:48:05.004Z,10.20
2023-04-20T19:50:09.251Z,10.30
2023-04-20T19:52:12.952Z,10.30
2023-04-20T19:54:17.762Z,10.40
2023-04-20T19:56:22.512Z,10.40
2023-04-20T19:58:26.033Z,10.30
2023-04-20T20:00:30.985Z,10.30
2023-04-20T20:02:34.701Z,10.40
2023-04-20T20:04:39.425Z,10.30
2023-04-20T20:06:44.378Z,10.30
2023-04-20T20:08:48.072Z,10.30
2023-04-20T20:10:51.748Z,10.40
2023-04-20T20:16:12.929Z,10.60
2023-04-20T20:18:16.554Z,10.70
2023-04-20T20:20:22.901Z,10.80
2023-04-20T20:29:23.266Z,10.90
2023-04-20T20:31:28.954Z,10.90
2023-04-20T20:33:32.552Z,10.90
2023-04-20T20:35:37.905Z,10.80
2023-04-20T20:37:41.703Z,10.80
2023-04-20T20:39:45.777Z,10.80
2023-04-20T20:41:51.409Z,10.70
2023-04-20T20:44:11.491Z,10.70
2023-04-20T20:46:15.777Z,10.60
2023-04-20T20:48:20.809Z,10.60
2023-04-20T20:50:26.364Z,10.60
2023-04-20T20:52:30.024Z,10.70
2023-04-20T20:54:33.732Z,10.70
2023-04-20T20:56:37.175Z,10.70
2023-04-20T20:58:40.798Z,10.70
2023-04-20T21:00:47.020Z,10.70
2023-04-20T21:02:51.298Z,10.80
2023-04-20T21:04:56.317Z,10.80
2023-04-20T21:06:59.883Z,10.80
2023-04-20T21:09:04.381Z,10.80
2023-04-20T21:11:07.868Z,10.90
2023-04-20T21:13:11.319Z,10.80
2023-04-20T21:15:14.725Z,10.90
2023-04-20T21:18:18.962Z,10.90
2023-04-20T21:20:24.041Z,10.90
2023-04-20T21:22:28.003Z,11.00
2023-04-20T21:24:31.704Z,11.10
2023-04-20T21:26:36.157Z,11.10
2023-04-20T21:28:39.669Z,11.20
2023-04-20T21:30:43.271Z,11.20
2023-04-20T21:32:46.955Z,11.20
2023-04-20T21:35:32.497Z,11.20
2023-04-20T21:37:37.699Z,11.30
2023-04-20T21:39:41.166Z,11.30
2023-04-20T21:41:44.537Z,11.40
2023-04-20T21:44:23.946Z,11.50
2023-04-20T21:46:27.572Z,11.60
2023-04-20T21:48:31.005Z,11.70
2023-04-20T21:50:34.455Z,11.70
2023-04-20T21:52:39.275Z,11.70
2023-04-20T21:54:42.731Z,11.60
2023-04-20T21:56:46.686Z,11.40
2023-04-20T21:58:50.052Z,11.40
2023-04-20T22:01:49.302Z,11.30
2023-04-20T22:03:54.100Z,11.20
2023-04-20T22:05:58.132Z,11.20
2023-04-20T22:08:03.345Z,11.10
2023-04-20T22:10:08.340Z,11.10
2023-04-20T22:12:14.715Z,11.10
2023-04-20T22:14:18.475Z,11.10
2023-04-20T22:16:22.375Z,11.10
2023-04-20T22:18:25.922Z,11.20
2023-04-20T22:20:29.543Z,11.20
2023-04-20T22:22:33.021Z,11.30
2023-04-20T22:24:37.806Z,11.40
2023-04-20T22:26:42.157Z,11.40
2023-04-20T22:28:45.804Z,11.40
2023-04-20T22:30:49.608Z,11.40
2023-04-20T22:32:53.287Z,11.30
2023-04-20T22:34:56.939Z,11.20
2023-04-20T22:37:00.616Z,11.10
2023-04-20T22:42:31.645Z,11.00
2023-04-20T22:44:35.556Z,11.00
2023-04-20T22:46:39.265Z,10.90
2023-04-20T22:48:42.944Z,10.80
2023-04-20T22:50:46.383Z,10.80
2023-04-20T22:52:50.560Z,10.80
2023-04-20T22:54:54.098Z,10.80
2023-04-20T22:57:49.148Z,10.80
2023-04-20T22:59:54.236Z,10.80
2023-04-20T23:01:58.159Z,10.80
2023-04-20T23:04:01.910Z,10.80
2023-04-20T23:06:07.282Z,10.90
2023-04-20T23:08:10.923Z,11.00
2023-04-20T23:10:16.244Z,11.00
2023-04-20T23:12:21.772Z,11.00
2023-04-20T23:14:25.913Z,11.10
2023-04-20T23:16:54.213Z,11.10
2023-04-20T23:18:57.845Z,11.10
2023-04-20T23:21:01.616Z,11.10
2023-04-20T23:23:05.163Z,11.10
2023-04-20T23:25:14.903Z,11.20
2023-04-20T23:27:18.398Z,11.20
2023-04-20T23:29:21.982Z,11.20
2023-04-20T23:31:26.277Z,11.30
2023-04-20T23:33:31.170Z,11.30
2023-04-20T23:35:35.075Z,11.40
2023-04-20T23:37:39.075Z,11.50
2023-04-20T23:39:42.725Z,11.50
2023-04-20T23:41:46.816Z,11.50
2023-04-20T23:43:50.252Z,11.60
2023-04-20T23:45:54.082Z,11.70
2023-04-20T23:47:57.621Z,11.70
2023-04-20T23:50:02.544Z,11.70
2023-04-20T23:52:06.305Z,11.80
2023-04-20T23:54:09.968Z,11.80
2023-04-20T23:56:18.669Z,11.90
2023-04-20T23:58:23.337Z,11.90
